Time;durP1;ratioP1;P1;durP2;ratioP2;P2;SDS_P1;SDS_P2;PMS_P1;PMS_P2;Temp;Humidity;BMP_temperature;BMP_pressure;BME280_temperature;BME280_humidity;BME280_pressure;Samples;Min_cycle;Max_cycle;Signal;HPM_P1;HPM_P2
2021/07/23 00:02:39;;;;;;;15.93;13.63;;;;;;;;;;5024791;28;20121;-75
2021/07/23 00:05:24;;;;;;;16.33;13.85;;;;;;;;;;5035749;28;20044;-74
2021/07/23 00:08:08;;;;;;;14.75;13.15;;;;;;;;;;5010199;28;20068;-75
2021/07/23 00:10:53;;;;;;;15.05;13.30;;;;;;;;;;5010016;28;20068;-75
2021/07/23 00:13:37;;;;;;;16.20;13.52;;;;;;;;;;5025560;28;20107;-74
2021/07/23 00:16:22;;;;;;;16.70;13.77;;;;;;;;;;5026098;28;20059;-74
2021/07/23 00:19:06;;;;;;;17.10;13.35;;;;;;;;;;5021468;28;20036;-76
2021/07/23 00:21:51;;;;;;;16.67;12.93;;;;;;;;;;5024889;28;20040;-79
2021/07/23 00:24:36;;;;;;;14.73;13.13;;;;;;;;;;5024809;28;20132;-75
2021/07/23 00:27:20;;;;;;;15.98;13.52;;;;;;;;;;5020034;28;20060;-75
2021/07/23 00:30:05;;;;;;;15.85;13.40;;;;;;;;;;5021641;28;20446;-75
2021/07/23 00:32:50;;;;;;;15.27;13.23;;;;;;;;;;5024629;28;20157;-75
2021/07/23 00:35:35;;;;;;;15.00;12.63;;;;;;;;;;5006628;28;20513;-76
2021/07/23 00:38:19;;;;;;;15.38;13.50;;;;;;;;;;5023500;28;20044;-74
2021/07/23 00:41:04;;;;;;;15.88;13.52;;;;;;;;;;5022467;28;20163;-76
2021/07/23 00:43:49;;;;;;;15.52;13.50;;;;;;;;;;5024164;28;20417;-73
2021/07/23 00:46:33;;;;;;;14.57;13.05;;;;;;;;;;5023886;28;20052;-72
2021/07/23 00:49:18;;;;;;;15.18;13.52;;;;;;;;;;5008558;28;20363;-73
2021/07/23 00:52:02;;;;;;;15.98;13.25;;;;;;;;;;5023608;28;20509;-74
2021/07/23 00:54:48;;;;;;;16.05;13.43;;;;;;;;;;5010614;28;20084;-73
2021/07/23 00:57:32;;;;;;;15.45;13.20;;;;;;;;;;5023467;28;20056;-74
2021/07/23 01:00:17;;;;;;;16.17;13.63;;;;;;;;;;5023444;28;20040;-73
2021/07/23 01:03:02;;;;;;;15.60;14.00;;;;;;;;;;5019840;28;20049;-73
2021/07/23 01:05:50;;;;;;;15.27;13.68;;;;;;;;;;5018869;28;20040;-73
2021/07/23 01:08:34;;;;;;;17.40;13.30;;;;;;;;;;5023386;28;20043;-73
2021/07/23 01:11:19;;;;;;;15.15;13.32;;;;;;;;;;5025258;28;20047;-73
2021/07/23 01:14:03;;;;;;;15.52;13.90;;;;;;;;;;5025070;28;20047;-73
2021/07/23 01:16:48;;;;;;;15.02;13.27;;;;;;;;;;5013926;28;20083;-72
2021/07/23 01:19:35;;;;;;;15.80;13.98;;;;;;;;;;5010188;28;20207;-77
2021/07/23 01:22:21;;;;;;;15.32;13.70;;;;;;;;;;5023596;28;20515;-73
2021/07/23 01:25:06;;;;;;;17.95;13.63;;;;;;;;;;5009700;28;20509;-73
2021/07/23 01:27:51;;;;;;;15.35;13.27;;;;;;;;;;5023545;28;20684;-73
2021/07/23 01:30:36;;;;;;;16.42;13.43;;;;;;;;;;5020742;28;20044;-73
2021/07/23 01:33:21;;;;;;;16.38;13.68;;;;;;;;;;5021698;28;20083;-73
2021/07/23 01:36:06;;;;;;;16.23;14.02;;;;;;;;;;5004749;28;20091;-73
2021/07/23 01:38:50;;;;;;;14.73;13.10;;;;;;;;;;5008958;28;20148;-74
2021/07/23 01:41:35;;;;;;;16.52;13.40;;;;;;;;;;5023272;28;20516;-74
2021/07/23 01:44:19;;;;;;;16.55;13.85;;;;;;;;;;5023152;28;20041;-73
2021/07/23 01:47:04;;;;;;;16.27;13.75;;;;;;;;;;5024667;28;20044;-74
2021/07/23 01:49:48;;;;;;;16.02;13.15;;;;;;;;;;5023875;28;20051;-74
2021/07/23 01:52:34;;;;;;;14.70;13.20;;;;;;;;;;4990593;28;20548;-77
2021/07/23 01:55:19;;;;;;;16.25;13.73;;;;;;;;;;5018453;28;20563;-73
2021/07/23 01:58:04;;;;;;;14.38;12.85;;;;;;;;;;5015037;28;20040;-73
2021/07/23 02:00:48;;;;;;;14.80;12.80;;;;;;;;;;5022466;28;20076;-73
2021/07/23 02:03:34;;;;;;;14.25;12.75;;;;;;;;;;5024449;28;20120;-73
2021/07/23 02:06:19;;;;;;;14.88;13.10;;;;;;;;;;5026314;28;20091;-73
2021/07/23 02:09:03;;;;;;;14.07;12.50;;;;;;;;;;5026350;28;20045;-73
2021/07/23 02:11:48;;;;;;;15.65;13.98;;;;;;;;;;5025713;28;20166;-73
2021/07/23 02:14:32;;;;;;;14.43;12.85;;;;;;;;;;5026825;28;20095;-73
2021/07/23 02:17:17;;;;;;;14.50;12.23;;;;;;;;;;5025134;28;20064;-74
2021/07/23 02:20:01;;;;;;;14.40;12.85;;;;;;;;;;5025743;28;20119;-75
2021/07/23 02:22:46;;;;;;;14.90;12.27;;;;;;;;;;5024636;28;20044;-75
2021/07/23 02:25:32;;;;;;;14.38;12.77;;;;;;;;;;5011333;28;20470;-75
2021/07/23 02:28:17;;;;;;;13.50;11.57;;;;;;;;;;5024314;28;20477;-75
2021/07/23 02:31:06;;;;;;;15.07;12.00;;;;;;;;;;5006981;28;20056;-73
2021/07/23 02:33:50;;;;;;;13.90;12.27;;;;;;;;;;5015798;28;20040;-73
2021/07/23 02:36:35;;;;;;;14.70;12.45;;;;;;;;;;5023136;28;20103;-73
2021/07/23 02:39:19;;;;;;;13.60;12.18;;;;;;;;;;5018282;28;20044;-72
2021/07/23 02:42:04;;;;;;;15.18;12.10;;;;;;;;;;5015172;28;20155;-76
2021/07/23 02:44:48;;;;;;;12.75;11.45;;;;;;;;;;5024464;28;20048;-75
2021/07/23 02:47:33;;;;;;;13.75;11.98;;;;;;;;;;5021249;28;20044;-76
2021/07/23 02:50:19;;;;;;;13.15;11.82;;;;;;;;;;5023198;28;20048;-75
2021/07/23 02:53:04;;;;;;;14.13;11.93;;;;;;;;;;5021667;28;20506;-75
2021/07/23 02:55:52;;;;;;;12.77;11.43;;;;;;;;;;5025920;28;20131;-75
2021/07/23 02:58:38;;;;;;;14.45;12.38;;;;;;;;;;5019809;28;20071;-76
2021/07/23 03:01:22;;;;;;;12.25;10.75;;;;;;;;;;5021062;28;20068;-75
2021/07/23 03:04:07;;;;;;;12.88;11.05;;;;;;;;;;5018515;28;20128;-76
2021/07/23 03:06:52;;;;;;;12.48;10.88;;;;;;;;;;5025277;28;20520;-75
2021/07/23 03:09:36;;;;;;;13.88;11.40;;;;;;;;;;5023499;28;20148;-76
2021/07/23 03:12:20;;;;;;;12.52;11.05;;;;;;;;;;5022579;28;20099;-75
2021/07/23 03:15:05;;;;;;;12.38;11.07;;;;;;;;;;5023216;28;20080;-75
2021/07/23 03:17:50;;;;;;;12.30;11.00;;;;;;;;;;5023616;28;20036;-75
2021/07/23 03:20:34;;;;;;;11.93;10.38;;;;;;;;;;5004581;28;20114;-75
2021/07/23 03:23:19;;;;;;;11.70;10.50;;;;;;;;;;5024610;28;20165;-75
2021/07/23 03:26:07;;;;;;;11.15;10.05;;;;;;;;;;5009626;28;20095;-75
2021/07/23 03:28:51;;;;;;;11.35;10.15;;;;;;;;;;5016573;28;20049;-75
2021/07/23 03:31:36;;;;;;;12.23;10.23;;;;;;;;;;5027654;28;20347;-73
2021/07/23 03:34:20;;;;;;;12.30;10.25;;;;;;;;;;5025267;28;20076;-75
2021/07/23 03:37:05;;;;;;;11.80;10.05;;;;;;;;;;5027617;28;20091;-75
2021/07/23 03:39:49;;;;;;;10.90;9.35;;;;;;;;;;5026042;28;20083;-75
2021/07/23 03:42:34;;;;;;;11.30;9.73;;;;;;;;;;5024283;28;20048;-75
2021/07/23 03:45:19;;;;;;;11.35;9.65;;;;;;;;;;5027358;28;20040;-75
2021/07/23 03:48:04;;;;;;;10.90;9.27;;;;;;;;;;5020142;28;20044;-76
2021/07/23 03:50:50;;;;;;;12.32;9.45;;;;;;;;;;5021207;28;20049;-75
2021/07/23 03:53:34;;;;;;;10.30;9.23;;;;;;;;;;5021523;28;20045;-75
2021/07/23 03:56:19;;;;;;;12.32;9.38;;;;;;;;;;5013152;28;20052;-76
2021/07/23 03:59:04;;;;;;;10.20;9.15;;;;;;;;;;5025671;28;20076;-75
2021/07/23 04:01:49;;;;;;;10.38;9.05;;;;;;;;;;5022378;28;20083;-73
2021/07/23 04:04:33;;;;;;;9.82;8.73;;;;;;;;;;5019584;28;20044;-73
2021/07/23 04:07:18;;;;;;;10.95;8.77;;;;;;;;;;5026741;28;20048;-73
2021/07/23 04:10:03;;;;;;;10.57;8.30;;;;;;;;;;5012533;28;20032;-73
2021/07/23 04:12:48;;;;;;;9.70;8.65;;;;;;;;;;5020817;28;20049;-73
2021/07/23 04:15:33;;;;;;;10.40;9.30;;;;;;;;;;5024940;28;20048;-73
2021/07/23 04:18:17;;;;;;;9.05;8.15;;;;;;;;;;5023412;28;20057;-75
2021/07/23 04:21:05;;;;;;;9.60;8.50;;;;;;;;;;5027805;28;20045;-75
2021/07/23 04:23:50;;;;;;;9.23;8.32;;;;;;;;;;5018970;28;20103;-75
2021/07/23 04:26:35;;;;;;;10.20;8.13;;;;;;;;;;5026869;28;20459;-75
2021/07/23 04:29:20;;;;;;;9.25;7.85;;;;;;;;;;5009801;28;20161;-75
2021/07/23 04:32:04;;;;;;;9.02;7.90;;;;;;;;;;5026159;28;20587;-75
2021/07/23 04:34:49;;;;;;;9.73;8.23;;;;;;;;;;5025892;28;20469;-75
2021/07/23 04:37:34;;;;;;;10.10;8.07;;;;;;;;;;5025619;28;20103;-75
2021/07/23 04:40:18;;;;;;;8.80;7.85;;;;;;;;;;5025049;28;20055;-73
2021/07/23 04:43:03;;;;;;;11.30;8.48;;;;;;;;;;5027990;28;20072;-73
2021/07/23 04:45:47;;;;;;;9.30;8.02;;;;;;;;;;5025727;28;20285;-75
2021/07/23 04:48:33;;;;;;;9.18;8.15;;;;;;;;;;5018862;28;20067;-76
2021/07/23 04:51:17;;;;;;;9.23;8.30;;;;;;;;;;5013925;28;20087;-76
2021/07/23 04:54:01;;;;;;;8.93;7.88;;;;;;;;;;5023895;28;20049;-76
2021/07/23 04:56:50;;;;;;;9.90;8.43;;;;;;;;;;5020379;28;20712;-76
2021/07/23 04:59:34;;;;;;;9.10;8.07;;;;;;;;;;5024545;28;20084;-76
2021/07/23 05:02:19;;;;;;;9.27;8.25;;;;;;;;;;5025051;28;20537;-76
2021/07/23 05:05:04;;;;;;;8.70;7.72;;;;;;;;;;5015877;28;20092;-75
2021/07/23 05:07:48;;;;;;;9.90;8.20;;;;;;;;;;5023933;28;20056;-76
2021/07/23 05:10:33;;;;;;;9.10;8.20;;;;;;;;;;5025092;28;20036;-73
2021/07/23 05:13:19;;;;;;;9.60;8.52;;;;;;;;;;5023953;28;21018;-76
2021/07/23 05:16:04;;;;;;;9.93;8.27;;;;;;;;;;5023473;28;20548;-75
2021/07/23 05:18:49;;;;;;;9.48;8.15;;;;;;;;;;5015309;28;20172;-75
2021/07/23 05:21:34;;;;;;;8.52;7.68;;;;;;;;;;5023780;28;20049;-77
2021/07/23 05:24:19;;;;;;;9.13;7.85;;;;;;;;;;5021829;28;20072;-76
2021/07/23 05:27:04;;;;;;;9.70;8.00;;;;;;;;;;5023148;28;20068;-76
2021/07/23 05:29:48;;;;;;;9.43;7.80;;;;;;;;;;5024252;28;20113;-75
2021/07/23 05:32:33;;;;;;;9.23;7.85;;;;;;;;;;5023861;28;20041;-76
2021/07/23 05:35:18;;;;;;;8.70;7.78;;;;;;;;;;5022654;28;20156;-76
2021/07/23 05:38:02;;;;;;;8.88;7.43;;;;;;;;;;5021393;28;20064;-76
2021/07/23 05:40:47;;;;;;;8.65;7.45;;;;;;;;;;5017541;28;20044;-75
2021/07/23 05:43:31;;;;;;;9.50;7.80;;;;;;;;;;5019069;28;20037;-75
2021/07/23 05:46:16;;;;;;;8.82;7.78;;;;;;;;;;5017676;28;20063;-76
2021/07/23 05:49:01;;;;;;;8.60;7.47;;;;;;;;;;5014543;28;20044;-76
2021/07/23 05:51:45;;;;;;;8.68;7.15;;;;;;;;;;5023619;28;20119;-75
2021/07/23 05:54:30;;;;;;;9.23;7.70;;;;;;;;;;5019091;28;20036;-75
2021/07/23 05:57:14;;;;;;;9.05;7.32;;;;;;;;;;5015590;28;20056;-76
2021/07/23 05:59:59;;;;;;;9.45;7.38;;;;;;;;;;5018645;28;20199;-76
2021/07/23 06:02:43;;;;;;;8.35;7.53;;;;;;;;;;5015691;28;20083;-76
2021/07/23 06:05:28;;;;;;;8.57;7.68;;;;;;;;;;5005013;28;20044;-76
2021/07/23 06:08:12;;;;;;;8.35;7.45;;;;;;;;;;5020353;28;20048;-76
2021/07/23 06:11:03;;;;;;;8.77;7.38;;;;;;;;;;5015616;28;20041;-76
2021/07/23 06:13:47;;;;;;;7.80;6.93;;;;;;;;;;5012271;28;20712;-76
2021/07/23 06:16:32;;;;;;;8.57;7.65;;;;;;;;;;5021881;28;20075;-76
2021/07/23 06:19:17;;;;;;;9.38;7.03;;;;;;;;;;5011288;28;20036;-75
2021/07/23 06:22:01;;;;;;;8.45;6.95;;;;;;;;;;5018929;28;20041;-75
2021/07/23 06:24:46;;;;;;;8.27;6.68;;;;;;;;;;5020034;28;20040;-76
2021/07/23 06:27:30;;;;;;;8.60;7.70;;;;;;;;;;5003906;28;20124;-75
2021/07/23 06:30:15;;;;;;;8.77;7.30;;;;;;;;;;5023035;28;20064;-76
2021/07/23 06:33:00;;;;;;;8.52;6.82;;;;;;;;;;5023365;28;20519;-75
2021/07/23 06:35:44;;;;;;;9.27;6.75;;;;;;;;;;5019360;28;20060;-76
2021/07/23 06:38:29;;;;;;;8.32;7.10;;;;;;;;;;5006809;28;20598;-76
2021/07/23 06:41:14;;;;;;;9.40;7.30;;;;;;;;;;5018106;28;20060;-76
2021/07/23 06:43:59;;;;;;;9.73;6.70;;;;;;;;;;5016478;28;20083;-76
2021/07/23 06:46:43;;;;;;;8.35;6.95;;;;;;;;;;5019572;28;20045;-75
2021/07/23 06:49:28;;;;;;;9.63;7.82;;;;;;;;;;5013471;28;20075;-75
2021/07/23 06:52:13;;;;;;;9.10;7.50;;;;;;;;;;5019709;28;20048;-75
2021/07/23 06:54:58;;;;;;;9.65;7.72;;;;;;;;;;5014665;28;20485;-75
2021/07/23 06:57:42;;;;;;;7.50;6.57;;;;;;;;;;5012795;28;20131;-76
2021/07/23 07:00:26;;;;;;;10.15;7.38;;;;;;;;;;5005981;28;20919;-75
2021/07/23 07:03:11;;;;;;;9.25;7.38;;;;;;;;;;4991572;28;20403;-75
2021/07/23 07:05:58;;;;;;;9.15;7.10;;;;;;;;;;5025999;28;20036;-76
2021/07/23 07:08:43;;;;;;;10.70;7.68;;;;;;;;;;5026928;28;20071;-76
2021/07/23 07:11:27;;;;;;;11.73;8.13;;;;;;;;;;5014730;28;20049;-76
2021/07/23 07:14:12;;;;;;;9.70;7.38;;;;;;;;;;5018606;28;20187;-76
2021/07/23 07:16:56;;;;;;;11.77;8.02;;;;;;;;;;5027174;28;20060;-76
2021/07/23 07:19:41;;;;;;;8.98;7.18;;;;;;;;;;5023372;28;20427;-76
2021/07/23 07:22:26;;;;;;;11.55;7.78;;;;;;;;;;5017560;28;20702;-75
2021/07/23 07:25:11;;;;;;;11.55;7.97;;;;;;;;;;5025796;28;20041;-75
2021/07/23 07:27:57;;;;;;;8.95;7.50;;;;;;;;;;5020638;28;21766;-77
2021/07/23 07:30:46;;;;;;;11.13;8.10;;;;;;;;;;5025276;28;20509;-76
2021/07/23 07:33:30;;;;;;;10.60;8.20;;;;;;;;;;5018504;28;20039;-76
2021/07/23 07:36:17;;;;;;;11.43;7.82;;;;;;;;;;5040656;28;20110;-76
2021/07/23 07:39:02;;;;;;;11.73;8.18;;;;;;;;;;4995748;28;20060;-77
2021/07/23 07:41:47;;;;;;;10.73;8.18;;;;;;;;;;5018731;28;20063;-76
2021/07/23 07:44:31;;;;;;;11.55;8.82;;;;;;;;;;5026083;28;20039;-76
2021/07/23 07:47:16;;;;;;;12.10;8.15;;;;;;;;;;5024941;28;20095;-76
2021/07/23 07:50:01;;;;;;;10.13;8.07;;;;;;;;;;5011701;28;20059;-75
2021/07/23 07:52:46;;;;;;;11.27;8.20;;;;;;;;;;5014950;28;20107;-77
2021/07/23 07:55:30;;;;;;;11.63;8.65;;;;;;;;;;5017765;28;20144;-76
2021/07/23 07:58:15;;;;;;;11.93;9.32;;;;;;;;;;5018685;28;20543;-76
2021/07/23 08:01:00;;;;;;;14.32;10.15;;;;;;;;;;5020319;28;20052;-79
2021/07/23 08:03:44;;;;;;;11.57;9.07;;;;;;;;;;5011160;28;20528;-75
2021/07/23 08:06:38;;;;;;;10.07;8.90;;;;;;;;;;5023964;28;20091;-75
2021/07/23 08:09:23;;;;;;;11.23;9.07;;;;;;;;;;5024371;28;20103;-76
2021/07/23 08:12:08;;;;;;;14.52;9.35;;;;;;;;;;5020135;28;20041;-76
2021/07/23 08:14:52;;;;;;;13.23;9.48;;;;;;;;;;5022833;28;20048;-78
2021/07/23 08:17:37;;;;;;;11.70;8.98;;;;;;;;;;5026077;28;20097;-76
2021/07/23 08:20:21;;;;;;;9.50;8.02;;;;;;;;;;5004652;28;20108;-76
2021/07/23 08:23:06;;;;;;;11.38;9.65;;;;;;;;;;5022950;28;20402;-76
2021/07/23 08:25:50;;;;;;;13.10;9.75;;;;;;;;;;5024093;28;20118;-76
2021/07/23 08:28:36;;;;;;;12.93;9.13;;;;;;;;;;5007420;28;20091;-75
2021/07/23 08:31:21;;;;;;;11.77;9.20;;;;;;;;;;5011203;28;20045;-76
2021/07/23 08:34:06;;;;;;;14.57;10.95;;;;;;;;;;5024566;28;20040;-76
2021/07/23 08:36:51;;;;;;;12.45;9.52;;;;;;;;;;5024318;28;20099;-76
2021/07/23 08:39:35;;;;;;;12.15;9.73;;;;;;;;;;5021367;28;20080;-75
2021/07/23 08:42:26;;;;;;;14.23;10.20;;;;;;;;;;5019422;28;20036;-76
2021/07/23 08:45:11;;;;;;;11.38;9.23;;;;;;;;;;5031753;28;20136;-76
2021/07/23 08:47:56;;;;;;;13.50;10.15;;;;;;;;;;5010161;28;20032;-74
2021/07/23 08:50:41;;;;;;;13.93;10.13;;;;;;;;;;5011327;28;20113;-74
2021/07/23 08:53:26;;;;;;;11.75;9.55;;;;;;;;;;5006061;28;20041;-73
2021/07/23 08:56:10;;;;;;;11.35;9.68;;;;;;;;;;5023488;28;20072;-73
2021/07/23 08:58:55;;;;;;;17.48;11.27;;;;;;;;;;5023980;28;20549;-75
2021/07/23 09:01:58;;;;;;;15.23;10.85;;;;;;;;;;5016471;28;20052;-74
2021/07/23 09:04:43;;;;;;;17.10;11.85;;;;;;;;;;5011588;28;20099;-75
2021/07/23 09:07:29;;;;;;;18.50;11.50;;;;;;;;;;5016191;28;20115;-79
2021/07/23 09:10:20;;;;;;;19.33;11.55;;;;;;;;;;5022225;28;20497;-74
2021/07/23 09:13:06;;;;;;;20.13;11.00;;;;;;;;;;5023149;28;20635;-79
2021/07/23 09:15:50;;;;;;;24.10;11.80;;;;;;;;;;5023684;28;20041;-75
2021/07/23 09:18:41;;;;;;;20.85;11.88;;;;;;;;;;5022751;28;20044;-74
2021/07/23 09:21:25;;;;;;;20.02;12.63;;;;;;;;;;5005663;28;20351;-75
2021/07/23 09:24:10;;;;;;;20.10;12.07;;;;;;;;;;5023517;28;20059;-75
2021/07/23 09:26:54;;;;;;;17.08;10.75;;;;;;;;;;5022340;28;20040;-76
2021/07/23 09:29:52;;;;;;;15.90;11.20;;;;;;;;;;5004499;28;20163;-74
2021/07/23 09:32:37;;;;;;;17.48;11.57;;;;;;;;;;5012907;28;20113;-73
2021/07/23 09:35:22;;;;;;;18.75;11.45;;;;;;;;;;5033457;28;20051;-74
2021/07/23 09:38:10;;;;;;;18.90;11.13;;;;;;;;;;5034583;28;20087;-74
2021/07/23 09:40:54;;;;;;;18.15;11.25;;;;;;;;;;5039322;28;20040;-74
2021/07/23 09:43:45;;;;;;;18.10;10.90;;;;;;;;;;5017041;28;20134;-74
2021/07/23 09:46:35;;;;;;;16.98;10.93;;;;;;;;;;5036065;28;20072;-74
2021/07/23 09:49:26;;;;;;;19.48;11.15;;;;;;;;;;5024060;28;20044;-73
2021/07/23 09:52:10;;;;;;;16.42;10.68;;;;;;;;;;5023786;28;20782;-73
2021/07/23 09:54:55;;;;;;;15.00;10.65;;;;;;;;;;5022853;28;20725;-74
2021/07/23 09:57:39;;;;;;;15.35;10.98;;;;;;;;;;5023352;28;20071;-74
2021/07/23 10:00:26;;;;;;;15.75;10.38;;;;;;;;;;4995814;28;20044;-74
2021/07/23 10:03:13;;;;;;;16.35;11.60;;;;;;;;;;5036294;28;20048;-74
2021/07/23 10:05:59;;;;;;;14.38;10.35;;;;;;;;;;5036057;28;20040;-74
2021/07/23 10:08:53;;;;;;;17.05;11.25;;;;;;;;;;5028238;28;20119;-73
2021/07/23 10:11:41;;;;;;;15.98;11.27;;;;;;;;;;5043315;28;20079;-74
2021/07/23 10:14:28;;;;;;;15.90;11.10;;;;;;;;;;5029727;28;20575;-74
2021/07/23 10:17:12;;;;;;;16.58;11.00;;;;;;;;;;5003620;28;20044;-75
2021/07/23 10:19:57;;;;;;;14.93;11.07;;;;;;;;;;5023136;28;20075;-79
2021/07/23 10:22:42;;;;;;;17.10;10.57;;;;;;;;;;5024618;28;20115;-74
2021/07/23 10:25:26;;;;;;;15.90;10.85;;;;;;;;;;5013900;28;20040;-74
2021/07/23 10:28:11;;;;;;;15.40;10.65;;;;;;;;;;5014457;28;20421;-74
2021/07/23 10:30:55;;;;;;;13.70;10.75;;;;;;;;;;5022962;28;20722;-74
2021/07/23 10:34:07;;;;;;;15.02;11.15;;;;;;;;;;5013119;28;20524;-74
2021/07/23 10:36:52;;;;;;;15.40;11.80;;;;;;;;;;5011158;28;20581;-76
2021/07/23 10:39:36;;;;;;;17.77;13.13;;;;;;;;;;5024523;28;20052;-75
2021/07/23 10:42:21;;;;;;;14.15;11.27;;;;;;;;;;5020984;28;20639;-77
2021/07/23 10:45:12;;;;;;;15.05;11.38;;;;;;;;;;5026966;28;20075;-74
2021/07/23 10:47:56;;;;;;;17.98;13.15;;;;;;;;;;5023759;28;20040;-74
2021/07/23 10:50:41;;;;;;;15.73;11.80;;;;;;;;;;5019543;28;20033;-79
2021/07/23 10:53:25;;;;;;;21.58;13.80;;;;;;;;;;5020939;28;20142;-74
2021/07/23 10:56:10;;;;;;;20.88;13.30;;;;;;;;;;5017634;28;20048;-75
2021/07/23 10:58:55;;;;;;;16.27;13.88;;;;;;;;;;5013340;28;20040;-74
2021/07/23 11:01:49;;;;;;;19.35;14.43;;;;;;;;;;5012863;28;20071;-76
2021/07/23 11:04:33;;;;;;;21.23;14.18;;;;;;;;;;5010735;28;20040;-75
2021/07/23 11:07:23;;;;;;;18.58;15.35;;;;;;;;;;5017125;28;20157;-77
2021/07/23 11:10:10;;;;;;;19.20;16.05;;;;;;;;;;5023615;28;20032;-74
2021/07/23 11:12:55;;;;;;;20.77;15.35;;;;;;;;;;5022597;28;20044;-74
2021/07/23 11:15:39;;;;;;;17.83;13.98;;;;;;;;;;5020060;28;20184;-74
2021/07/23 11:18:24;;;;;;;19.58;14.48;;;;;;;;;;5010846;28;20068;-74
2021/07/23 11:21:08;;;;;;;16.40;14.07;;;;;;;;;;5022676;28;20419;-73
2021/07/23 11:23:53;;;;;;;17.70;14.18;;;;;;;;;;5011155;28;20037;-74
2021/07/23 11:26:38;;;;;;;19.15;14.18;;;;;;;;;;4992584;28;20494;-87
2021/07/23 11:29:37;;;;;;;17.88;13.88;;;;;;;;;;5016629;28;20544;-81
2021/07/23 11:32:21;;;;;;;18.17;14.43;;;;;;;;;;5024867;28;20517;-78
2021/07/23 11:35:08;;;;;;;16.40;13.50;;;;;;;;;;5026431;28;20132;-78
2021/07/23 11:37:52;;;;;;;16.55;13.30;;;;;;;;;;5008578;28;20079;-79
2021/07/23 11:40:37;;;;;;;16.40;13.63;;;;;;;;;;4994189;28;20076;-79
2021/07/23 11:43:22;;;;;;;17.67;12.63;;;;;;;;;;5022587;28;20044;-79
2021/07/23 11:46:13;;;;;;;14.45;12.45;;;;;;;;;;5025493;28;20179;-78
2021/07/23 11:48:57;;;;;;;17.88;12.95;;;;;;;;;;5010799;28;20044;-80
2021/07/23 11:51:42;;;;;;;15.38;12.73;;;;;;;;;;5025320;28;20040;-79
2021/07/23 11:54:27;;;;;;;18.55;12.15;;;;;;;;;;5026924;28;20039;-78
2021/07/23 11:57:13;;;;;;;16.13;13.05;;;;;;;;;;5021846;28;20048;-77
2021/07/23 11:59:57;;;;;;;16.70;12.50;;;;;;;;;;5021918;28;20040;-77
2021/07/23 12:02:42;;;;;;;19.50;12.02;;;;;;;;;;5023150;28;21077;-79
2021/07/23 12:05:27;;;;;;;18.48;12.25;;;;;;;;;;5025631;28;20039;-79
2021/07/23 12:08:12;;;;;;;17.88;12.43;;;;;;;;;;5021065;28;20103;-79
2021/07/23 12:11:00;;;;;;;17.02;12.18;;;;;;;;;;5023915;28;20247;-78
2021/07/23 12:13:44;;;;;;;16.65;11.60;;;;;;;;;;5025742;28;20067;-78
2021/07/23 12:16:29;;;;;;;18.20;12.55;;;;;;;;;;5025683;28;20048;-78
2021/07/23 12:19:17;;;;;;;14.73;12.07;;;;;;;;;;5020948;28;20056;-78
2021/07/23 12:22:11;;;;;;;16.58;12.25;;;;;;;;;;5036048;28;20071;-79
2021/07/23 12:24:56;;;;;;;16.00;11.88;;;;;;;;;;5016694;28;20064;-79
2021/07/23 12:27:40;;;;;;;16.52;12.00;;;;;;;;;;5016455;28;20394;-76
2021/07/23 12:30:32;;;;;;;17.40;12.05;;;;;;;;;;5010933;28;20072;-78
2021/07/23 12:33:17;;;;;;;17.52;11.88;;;;;;;;;;5023569;28;20041;-79
2021/07/23 12:36:21;;;;;;;17.95;12.15;;;;;;;;;;5024041;28;20164;-78
2021/07/23 12:39:05;;;;;;;16.70;11.88;;;;;;;;;;5025523;28;20071;-79
2021/07/23 12:41:50;;;;;;;16.83;11.68;;;;;;;;;;5023000;28;20117;-78
2021/07/23 12:44:38;;;;;;;17.63;11.80;;;;;;;;;;5024368;28;22041;-79
2021/07/23 12:47:23;;;;;;;15.23;11.77;;;;;;;;;;5024273;28;20045;-78
2021/07/23 12:50:13;;;;;;;12.90;10.88;;;;;;;;;;5022673;28;20041;-78
2021/07/23 12:52:58;;;;;;;16.85;12.07;;;;;;;;;;5022379;28;20036;-79
2021/07/23 12:55:42;;;;;;;18.85;11.95;;;;;;;;;;5024994;28;20156;-79
2021/07/23 12:58:39;;;;;;;14.02;10.98;;;;;;;;;;5024206;28;20126;-78
2021/07/23 13:01:24;;;;;;;13.75;11.00;;;;;;;;;;5021358;28;20493;-79
2021/07/23 13:04:09;;;;;;;14.73;11.73;;;;;;;;;;5025976;28;20140;-78
2021/07/23 13:06:53;;;;;;;14.32;10.52;;;;;;;;;;5025336;28;20505;-79
2021/07/23 13:09:44;;;;;;;15.25;10.50;;;;;;;;;;5022441;28;20156;-78
2021/07/23 13:12:29;;;;;;;15.02;11.43;;;;;;;;;;5024518;28;20044;-78
2021/07/23 13:15:14;;;;;;;13.65;10.90;;;;;;;;;;5025340;28;20049;-78
2021/07/23 13:17:59;;;;;;;13.85;10.60;;;;;;;;;;5010248;28;20079;-77
2021/07/23 13:20:43;;;;;;;17.77;11.30;;;;;;;;;;5025161;28;20072;-78
2021/07/23 13:23:28;;;;;;;15.13;10.73;;;;;;;;;;5009056;28;20525;-77
2021/07/23 13:26:12;;;;;;;14.30;10.68;;;;;;;;;;5010242;28;20067;-77
2021/07/23 13:28:57;;;;;;;13.45;10.88;;;;;;;;;;5015202;28;20040;-77
2021/07/23 13:31:42;;;;;;;14.18;11.20;;;;;;;;;;5030280;28;20070;-77
2021/07/23 13:34:26;;;;;;;16.38;11.10;;;;;;;;;;5033253;28;20723;-77
2021/07/23 13:37:14;;;;;;;14.40;11.82;;;;;;;;;;5021866;28;20878;-77
2021/07/23 13:40:01;;;;;;;13.95;10.93;;;;;;;;;;5020326;28;20051;-78
2021/07/23 13:42:47;;;;;;;15.18;10.98;;;;;;;;;;5010125;28;20083;-77
2021/07/23 13:45:34;;;;;;;14.70;10.80;;;;;;;;;;5014637;28;20517;-77
2021/07/23 13:48:19;;;;;;;18.83;10.80;;;;;;;;;;5018629;28;20087;-77
2021/07/23 13:51:04;;;;;;;15.40;10.98;;;;;;;;;;5019855;28;20040;-77
2021/07/23 13:53:48;;;;;;;15.05;11.63;;;;;;;;;;5022518;28;20099;-76
2021/07/23 13:56:33;;;;;;;16.23;11.55;;;;;;;;;;5021414;28;20076;-77
2021/07/23 13:59:18;;;;;;;16.35;11.90;;;;;;;;;;5004171;28;20088;-77
2021/07/23 14:02:03;;;;;;;17.10;12.25;;;;;;;;;;5013836;28;20136;-78
2021/07/23 14:04:49;;;;;;;15.80;12.00;;;;;;;;;;5012414;28;20064;-77
2021/07/23 14:07:33;;;;;;;15.32;11.80;;;;;;;;;;5019347;28;20659;-77
2021/07/23 14:10:18;;;;;;;18.30;12.30;;;;;;;;;;5025154;28;20103;-77
2021/07/23 14:13:03;;;;;;;17.80;12.50;;;;;;;;;;5040315;28;20623;-77
2021/07/23 14:15:48;;;;;;;19.83;12.57;;;;;;;;;;5028363;28;20045;-76
2021/07/23 14:18:36;;;;;;;16.90;11.77;;;;;;;;;;5032408;28;20039;-78
2021/07/23 14:21:20;;;;;;;18.00;12.88;;;;;;;;;;5030914;28;20444;-77
2021/07/23 14:24:05;;;;;;;16.50;12.85;;;;;;;;;;5014389;28;20043;-78
2021/07/23 14:26:49;;;;;;;19.23;12.88;;;;;;;;;;5047223;28;20090;-78
2021/07/23 14:29:34;;;;;;;14.20;12.18;;;;;;;;;;5047494;28;20039;-78
2021/07/23 14:32:19;;;;;;;16.13;12.93;;;;;;;;;;5016787;28;20811;-78
2021/07/23 14:35:04;;;;;;;16.42;12.23;;;;;;;;;;5011027;28;20176;-78
2021/07/23 14:37:49;;;;;;;16.20;12.95;;;;;;;;;;5015052;28;20537;-77
2021/07/23 14:40:34;;;;;;;19.88;13.77;;;;;;;;;;5038289;28;20044;-78
2021/07/23 14:43:18;;;;;;;17.77;13.15;;;;;;;;;;5013200;28;20684;-76
2021/07/23 14:46:03;;;;;;;18.75;12.80;;;;;;;;;;5023114;28;20056;-76
2021/07/23 14:48:48;;;;;;;16.85;13.07;;;;;;;;;;5019241;28;20532;-78
2021/07/23 14:51:33;;;;;;;17.58;13.95;;;;;;;;;;5030086;28;20083;-74
2021/07/23 14:54:17;;;;;;;18.20;13.45;;;;;;;;;;5022906;28;20083;-74
2021/07/23 14:57:04;;;;;;;20.33;14.73;;;;;;;;;;5027372;28;20668;-74
2021/07/23 14:59:49;;;;;;;21.70;14.30;;;;;;;;;;5032412;28;20044;-76
2021/07/23 15:02:34;;;;;;;19.63;14.23;;;;;;;;;;5019388;28;20044;-74
2021/07/23 15:05:19;;;;;;;21.30;13.50;;;;;;;;;;5019373;28;20080;-75
2021/07/23 15:08:03;;;;;;;20.60;14.25;;;;;;;;;;5023377;28;20083;-75
2021/07/23 15:10:48;;;;;;;19.30;13.93;;;;;;;;;;5021159;28;20044;-76
2021/07/23 15:13:32;;;;;;;18.33;13.38;;;;;;;;;;5022372;28;20045;-75
2021/07/23 15:16:17;;;;;;;19.92;13.80;;;;;;;;;;5015702;28;20129;-74
2021/07/23 15:19:07;;;;;;;24.08;14.27;;;;;;;;;;5015545;28;20611;-74
2021/07/23 15:21:59;;;;;;;16.05;13.25;;;;;;;;;;5022127;28;20094;-74
2021/07/23 15:24:43;;;;;;;21.00;14.05;;;;;;;;;;5043986;28;20074;-75
2021/07/23 15:27:28;;;;;;;19.30;13.80;;;;;;;;;;5015341;28;20040;-74
2021/07/23 15:30:13;;;;;;;18.17;13.50;;;;;;;;;;5021360;28;20795;-74
2021/07/23 15:32:58;;;;;;;19.48;13.98;;;;;;;;;;5026154;28;20044;-75
2021/07/23 15:35:43;;;;;;;17.98;14.32;;;;;;;;;;5027110;28;20049;-75
2021/07/23 15:38:28;;;;;;;18.75;14.20;;;;;;;;;;5032141;28;20120;-76
2021/07/23 15:41:13;;;;;;;19.13;13.82;;;;;;;;;;5029483;28;20563;-75
2021/07/23 15:43:57;;;;;;;16.75;14.05;;;;;;;;;;5043379;28;20043;-75
2021/07/23 15:46:42;;;;;;;17.80;14.18;;;;;;;;;;5027552;28;20037;-75
2021/07/23 15:49:26;;;;;;;18.02;14.02;;;;;;;;;;5027089;28;20036;-75
2021/07/23 15:52:10;;;;;;;19.85;14.27;;;;;;;;;;5026713;28;20048;-76
2021/07/23 15:54:55;;;;;;;19.63;14.43;;;;;;;;;;5025928;28;20044;-75
2021/07/23 15:57:39;;;;;;;18.00;14.80;;;;;;;;;;5025785;28;20053;-75
2021/07/23 16:00:24;;;;;;;16.80;13.85;;;;;;;;;;5004162;28;20128;-75
2021/07/23 16:03:09;;;;;;;18.60;14.32;;;;;;;;;;5006122;28;20072;-76
2021/07/23 16:05:53;;;;;;;19.20;14.77;;;;;;;;;;5005577;28;20064;-75
2021/07/23 16:08:39;;;;;;;22.23;15.65;;;;;;;;;;5008788;28;20285;-75
2021/07/23 16:11:24;;;;;;;18.63;15.23;;;;;;;;;;5011533;28;20122;-75